sensor_id;sensor_type;location;lat;lon;timestamp;temperature;humidity
10583;DHT22;33679;51.218;6.786;2022-12-18T00:00:47;0.80;99.90
10583;DHT22;33679;51.218;6.786;2022-12-18T00:03:17;0.80;99.90
10583;DHT22;33679;51.218;6.786;2022-12-18T00:05:48;0.80;99.90
10583;DHT22;33679;51.218;6.786;2022-12-18T00:08:16;0.80;99.90
10583;DHT22;33679;51.218;6.786;2022-12-18T00:10:44;0.70;99.90
10583;DHT22;33679;51.218;6.786;2022-12-18T00:13:16;0.70;99.90
10583;DHT22;33679;51.218;6.786;2022-12-18T00:15:43;0.70;99.90
10583;DHT22;33679;51.218;6.786;2022-12-18T00:18:13;0.70;99.90
10583;DHT22;33679;51.218;6.786;2022-12-18T00:20:49;0.70;99.90
10583;DHT22;33679;51.218;6.786;2022-12-18T00:23:18;0.70;99.90
10583;DHT22;33679;51.218;6.786;2022-12-18T00:25:54;0.70;99.90
10583;DHT22;33679;51.218;6.786;2022-12-18T00:28:21;0.70;99.90
10583;DHT22;33679;51.218;6.786;2022-12-18T00:30:48;0.70;99.90
10583;DHT22;33679;51.218;6.786;2022-12-18T00:33:17;0.70;99.90
10583;DHT22;33679;51.218;6.786;2022-12-18T00:35:44;0.70;99.90
10583;DHT22;33679;51.218;6.786;2022-12-18T00:38:13;0.70;99.90
10583;DHT22;33679;51.218;6.786;2022-12-18T00:40:43;0.70;99.90
10583;DHT22;33679;51.218;6.786;2022-12-18T00:43:14;0.70;99.90
10583;DHT22;33679;51.218;6.786;2022-12-18T00:45:40;0.70;99.90
10583;DHT22;33679;51.218;6.786;2022-12-18T00:48:07;0.70;99.90
10583;DHT22;33679;51.218;6.786;2022-12-18T00:50:34;0.70;99.90
10583;DHT22;33679;51.218;6.786;2022-12-18T00:53:01;0.70;99.90
10583;DHT22;33679;51.218;6.786;2022-12-18T00:55:29;0.70;99.90
10583;DHT22;33679;51.218;6.786;2022-12-18T00:57:56;0.70;99.90
10583;DHT22;33679;51.218;6.786;2022-12-18T01:00:23;0.70;99.90
10583;DHT22;33679;51.218;6.786;2022-12-18T01:02:51;0.60;99.90
10583;DHT22;33679;51.218;6.786;2022-12-18T01:05:18;0.60;99.90
10583;DHT22;33679;51.218;6.786;2022-12-18T01:07:45;0.60;99.90
10583;DHT22;33679;51.218;6.786;2022-12-18T01:10:13;0.70;99.90
10583;DHT22;33679;51.218;6.786;2022-12-18T01:12:41;0.70;99.90
10583;DHT22;33679;51.218;6.786;2022-12-18T01:15:10;0.70;99.90
10583;DHT22;33679;51.218;6.786;2022-12-18T01:17:38;0.70;99.90
10583;DHT22;33679;51.218;6.786;2022-12-18T01:20:06;0.70;99.90
10583;DHT22;33679;51.218;6.786;2022-12-18T01:22:34;0.60;99.90
10583;DHT22;33679;51.218;6.786;2022-12-18T01:25:02;0.70;99.90
10583;DHT22;33679;51.218;6.786;2022-12-18T01:27:33;0.60;99.90
10583;DHT22;33679;51.218;6.786;2022-12-18T01:30:05;0.60;99.90
10583;DHT22;33679;51.218;6.786;2022-12-18T01:32:33;0.60;99.90
10583;DHT22;33679;51.218;6.786;2022-12-18T01:35:01;0.60;99.90
10583;DHT22;33679;51.218;6.786;2022-12-18T01:37:28;0.60;99.90
10583;DHT22;33679;51.218;6.786;2022-12-18T01:39:56;0.60;99.90
10583;DHT22;33679;51.218;6.786;2022-12-18T01:42:23;0.60;99.90
10583;DHT22;33679;51.218;6.786;2022-12-18T01:44:57;0.60;99.90
10583;DHT22;33679;51.218;6.786;2022-12-18T01:47:35;0.70;99.90
10583;DHT22;33679;51.218;6.786;2022-12-18T01:50:08;0.70;99.90
10583;DHT22;33679;51.218;6.786;2022-12-18T01:52:36;0.70;99.90
10583;DHT22;33679;51.218;6.786;2022-12-18T01:55:08;0.70;99.90
10583;DHT22;33679;51.218;6.786;2022-12-18T01:57:36;0.70;99.90
10583;DHT22;33679;51.218;6.786;2022-12-18T02:00:08;0.70;99.90
10583;DHT22;33679;51.218;6.786;2022-12-18T02:02:40;0.70;99.90
10583;DHT22;33679;51.218;6.786;2022-12-18T02:05:09;0.70;99.90
10583;DHT22;33679;51.218;6.786;2022-12-18T02:07:44;0.70;99.90
10583;DHT22;33679;51.218;6.786;2022-12-18T02:10:17;0.80;99.90
10583;DHT22;33679;51.218;6.786;2022-12-18T02:12:51;0.80;99.90
10583;DHT22;33679;51.218;6.786;2022-12-18T02:15:26;0.80;99.90
10583;DHT22;33679;51.218;6.786;2022-12-18T02:18:01;0.80;99.90
10583;DHT22;33679;51.218;6.786;2022-12-18T02:20:35;0.70;99.90
10583;DHT22;33679;51.218;6.786;2022-12-18T02:23:16;0.70;99.90
10583;DHT22;33679;51.218;6.786;2022-12-18T02:26:02;0.60;99.90
10583;DHT22;33679;51.218;6.786;2022-12-18T02:28:34;0.60;99.90
10583;DHT22;33679;51.218;6.786;2022-12-18T02:31:07;0.50;99.90
10583;DHT22;33679;51.218;6.786;2022-12-18T02:33:37;0.50;99.90
10583;DHT22;33679;51.218;6.786;2022-12-18T02:36:07;0.50;99.90
10583;DHT22;33679;51.218;6.786;2022-12-18T02:38:37;0.40;99.90
10583;DHT22;33679;51.218;6.786;2022-12-18T02:41:13;0.40;99.90
10583;DHT22;33679;51.218;6.786;2022-12-18T02:43:52;0.40;99.90
10583;DHT22;33679;51.218;6.786;2022-12-18T02:46:30;0.40;99.90
10583;DHT22;33679;51.218;6.786;2022-12-18T02:49:06;0.40;99.90
10583;DHT22;33679;51.218;6.786;2022-12-18T02:51:44;0.40;99.90
10583;DHT22;33679;51.218;6.786;2022-12-18T02:54:25;0.40;99.90
10583;DHT22;33679;51.218;6.786;2022-12-18T02:56:57;0.50;99.90
10583;DHT22;33679;51.218;6.786;2022-12-18T02:59:30;0.50;99.90
10583;DHT22;33679;51.218;6.786;2022-12-18T03:02:19;0.50;99.90
10583;DHT22;33679;51.218;6.786;2022-12-18T03:04:52;0.50;99.90
10583;DHT22;33679;51.218;6.786;2022-12-18T03:07:28;0.50;99.90
10583;DHT22;33679;51.218;6.786;2022-12-18T03:10:00;0.50;99.90
10583;DHT22;33679;51.218;6.786;2022-12-18T03:12:32;0.50;99.90
10583;DHT22;33679;51.218;6.786;2022-12-18T03:15:04;0.50;99.90
10583;DHT22;33679;51.218;6.786;2022-12-18T03:17:37;0.50;99.90
10583;DHT22;33679;51.218;6.786;2022-12-18T03:20:13;0.50;99.90
10583;DHT22;33679;51.218;6.786;2022-12-18T03:22:45;0.50;99.90
10583;DHT22;33679;51.218;6.786;2022-12-18T03:25:16;0.50;99.90
10583;DHT22;33679;51.218;6.786;2022-12-18T03:27:49;0.60;99.90
10583;DHT22;33679;51.218;6.786;2022-12-18T03:30:20;0.50;99.90
10583;DHT22;33679;51.218;6.786;2022-12-18T03:32:52;0.50;99.90
10583;DHT22;33679;51.218;6.786;2022-12-18T03:35:22;0.50;99.90
10583;DHT22;33679;51.218;6.786;2022-12-18T03:37:52;0.50;99.90
10583;DHT22;33679;51.218;6.786;2022-12-18T03:40:21;0.50;99.90
10583;DHT22;33679;51.218;6.786;2022-12-18T03:42:59;0.50;99.90
10583;DHT22;33679;51.218;6.786;2022-12-18T03:45:34;0.50;99.90
10583;DHT22;33679;51.218;6.786;2022-12-18T03:48:08;0.50;99.90
10583;DHT22;33679;51.218;6.786;2022-12-18T03:50:45;0.50;99.90
10583;DHT22;33679;51.218;6.786;2022-12-18T03:53:20;0.60;99.90
10583;DHT22;33679;51.218;6.786;2022-12-18T03:55:50;0.60;99.90
10583;DHT22;33679;51.218;6.786;2022-12-18T03:58:22;0.60;99.90
10583;DHT22;33679;51.218;6.786;2022-12-18T04:01:01;0.60;99.90
10583;DHT22;33679;51.218;6.786;2022-12-18T04:03:31;0.70;99.90
10583;DHT22;33679;51.218;6.786;2022-12-18T04:06:00;0.70;99.90
10583;DHT22;33679;51.218;6.786;2022-12-18T04:08:29;0.70;99.90
10583;DHT22;33679;51.218;6.786;2022-12-18T04:11:02;0.70;99.90
10583;DHT22;33679;51.218;6.786;2022-12-18T04:13:34;0.70;99.90
10583;DHT22;33679;51.218;6.786;2022-12-18T04:16:06;0.70;99.90
10583;DHT22;33679;51.218;6.786;2022-12-18T04:18:34;0.70;99.90
10583;DHT22;33679;51.218;6.786;2022-12-18T04:21:01;0.70;99.90
10583;DHT22;33679;51.218;6.786;2022-12-18T04:23:29;0.70;99.90
10583;DHT22;33679;51.218;6.786;2022-12-18T04:25:58;0.70;99.90
10583;DHT22;33679;51.218;6.786;2022-12-18T04:28:45;0.70;99.90
10583;DHT22;33679;51.218;6.786;2022-12-18T04:31:12;0.70;99.90
10583;DHT22;33679;51.218;6.786;2022-12-18T04:33:40;0.70;99.90
10583;DHT22;33679;51.218;6.786;2022-12-18T04:36:07;0.70;99.90
10583;DHT22;33679;51.218;6.786;2022-12-18T04:38:35;0.80;99.90
10583;DHT22;33679;51.218;6.786;2022-12-18T04:41:07;0.80;99.90
10583;DHT22;33679;51.218;6.786;2022-12-18T04:43:34;0.70;99.90
10583;DHT22;33679;51.218;6.786;2022-12-18T04:46:04;0.70;99.90
10583;DHT22;33679;51.218;6.786;2022-12-18T04:48:32;0.70;99.90
10583;DHT22;33679;51.218;6.786;2022-12-18T04:51:01;0.70;99.90
10583;DHT22;33679;51.218;6.786;2022-12-18T04:53:28;0.80;99.90
10583;DHT22;33679;51.218;6.786;2022-12-18T04:56:06;0.70;99.90
10583;DHT22;33679;51.218;6.786;2022-12-18T04:58:33;0.70;99.90
10583;DHT22;33679;51.218;6.786;2022-12-18T05:01:01;0.70;99.90
10583;DHT22;33679;51.218;6.786;2022-12-18T05:03:30;0.70;99.90
10583;DHT22;33679;51.218;6.786;2022-12-18T05:05:58;0.70;99.90
10583;DHT22;33679;51.218;6.786;2022-12-18T05:08:25;0.70;99.90
10583;DHT22;33679;51.218;6.786;2022-12-18T05:10:58;0.70;99.90
10583;DHT22;33679;51.218;6.786;2022-12-18T05:13:26;0.70;99.90
10583;DHT22;33679;51.218;6.786;2022-12-18T05:15:53;0.70;99.90
10583;DHT22;33679;51.218;6.786;2022-12-18T05:18:20;0.70;99.90
10583;DHT22;33679;51.218;6.786;2022-12-18T05:20:49;0.70;99.90
10583;DHT22;33679;51.218;6.786;2022-12-18T05:23:19;0.60;99.90
10583;DHT22;33679;51.218;6.786;2022-12-18T05:25:51;0.70;99.90
10583;DHT22;33679;51.218;6.786;2022-12-18T05:28:19;0.60;99.90
10583;DHT22;33679;51.218;6.786;2022-12-18T05:30:48;0.60;99.90
10583;DHT22;33679;51.218;6.786;2022-12-18T05:33:16;0.60;99.90
10583;DHT22;33679;51.218;6.786;2022-12-18T05:35:43;0.70;99.90
10583;DHT22;33679;51.218;6.786;2022-12-18T05:38:12;0.70;99.90
10583;DHT22;33679;51.218;6.786;2022-12-18T05:40:42;0.70;99.90
10583;DHT22;33679;51.218;6.786;2022-12-18T05:43:09;0.70;99.90
10583;DHT22;33679;51.218;6.786;2022-12-18T05:45:39;0.70;99.90
10583;DHT22;33679;51.218;6.786;2022-12-18T05:48:07;0.60;99.90
10583;DHT22;33679;51.218;6.786;2022-12-18T05:50:34;0.70;99.90
10583;DHT22;33679;51.218;6.786;2022-12-18T05:53:02;0.70;99.90
10583;DHT22;33679;51.218;6.786;2022-12-18T05:55:32;0.60;99.90
10583;DHT22;33679;51.218;6.786;2022-12-18T05:58:02;0.60;99.90
10583;DHT22;33679;51.218;6.786;2022-12-18T06:00:30;0.60;99.90
10583;DHT22;33679;51.218;6.786;2022-12-18T06:02:57;0.60;99.90
10583;DHT22;33679;51.218;6.786;2022-12-18T06:05:27;0.60;99.90
10583;DHT22;33679;51.218;6.786;2022-12-18T06:07:54;0.50;99.90
10583;DHT22;33679;51.218;6.786;2022-12-18T06:10:21;0.50;99.90
10583;DHT22;33679;51.218;6.786;2022-12-18T06:12:50;0.50;99.90
10583;DHT22;33679;51.218;6.786;2022-12-18T06:15:17;0.50;99.90
10583;DHT22;33679;51.218;6.786;2022-12-18T06:17:44;0.40;99.90
10583;DHT22;33679;51.218;6.786;2022-12-18T06:20:11;0.40;99.90
10583;DHT22;33679;51.218;6.786;2022-12-18T06:22:38;0.40;99.90
10583;DHT22;33679;51.218;6.786;2022-12-18T06:25:06;0.30;99.90
10583;DHT22;33679;51.218;6.786;2022-12-18T06:27:33;0.30;99.90
10583;DHT22;33679;51.218;6.786;2022-12-18T06:30:03;0.30;99.90
10583;DHT22;33679;51.218;6.786;2022-12-18T06:32:30;0.30;99.90
10583;DHT22;33679;51.218;6.786;2022-12-18T06:34:57;0.20;99.90
10583;DHT22;33679;51.218;6.786;2022-12-18T06:37:25;0.20;99.90
10583;DHT22;33679;51.218;6.786;2022-12-18T06:39:52;0.20;99.90
10583;DHT22;33679;51.218;6.786;2022-12-18T06:42:25;0.20;99.90
10583;DHT22;33679;51.218;6.786;2022-12-18T06:44:52;0.30;99.90
10583;DHT22;33679;51.218;6.786;2022-12-18T06:47:20;0.30;99.90
10583;DHT22;33679;51.218;6.786;2022-12-18T06:49:48;0.20;99.90
10583;DHT22;33679;51.218;6.786;2022-12-18T06:52:18;0.20;99.90
10583;DHT22;33679;51.218;6.786;2022-12-18T06:54:45;0.20;99.90
10583;DHT22;33679;51.218;6.786;2022-12-18T06:57:12;0.20;99.90
10583;DHT22;33679;51.218;6.786;2022-12-18T06:59:39;0.20;99.90
10583;DHT22;33679;51.218;6.786;2022-12-18T07:02:09;0.10;99.90
10583;DHT22;33679;51.218;6.786;2022-12-18T07:04:38;0.20;99.90
10583;DHT22;33679;51.218;6.786;2022-12-18T07:07:06;0.20;99.90
10583;DHT22;33679;51.218;6.786;2022-12-18T07:09:33;0.20;99.90
10583;DHT22;33679;51.218;6.786;2022-12-18T07:12:00;0.20;99.90
10583;DHT22;33679;51.218;6.786;2022-12-18T07:14:27;0.20;99.90
10583;DHT22;33679;51.218;6.786;2022-12-18T07:16:54;0.20;99.90
10583;DHT22;33679;51.218;6.786;2022-12-18T07:19:25;0.20;99.90
10583;DHT22;33679;51.218;6.786;2022-12-18T07:21:53;0.20;99.90
10583;DHT22;33679;51.218;6.786;2022-12-18T07:24:20;0.20;99.90
10583;DHT22;33679;51.218;6.786;2022-12-18T07:26:48;0.20;99.90
10583;DHT22;33679;51.218;6.786;2022-12-18T07:29:15;0.20;99.90
10583;DHT22;33679;51.218;6.786;2022-12-18T07:31:42;0.20;99.90
10583;DHT22;33679;51.218;6.786;2022-12-18T07:34:10;0.10;99.90
10583;DHT22;33679;51.218;6.786;2022-12-18T07:36:38;0.10;99.90
10583;DHT22;33679;51.218;6.786;2022-12-18T07:39:07;0.10;99.90
10583;DHT22;33679;51.218;6.786;2022-12-18T07:41:34;0.10;99.90
10583;DHT22;33679;51.218;6.786;2022-12-18T07:44:09;0.00;99.90
10583;DHT22;33679;51.218;6.786;2022-12-18T07:46:37;0.10;99.90
10583;DHT22;33679;51.218;6.786;2022-12-18T07:49:04;0.10;99.90
10583;DHT22;33679;51.218;6.786;2022-12-18T07:51:31;0.10;99.90
10583;DHT22;33679;51.218;6.786;2022-12-18T07:53:58;0.10;99.90
10583;DHT22;33679;51.218;6.786;2022-12-18T07:56:27;0.10;99.90
10583;DHT22;33679;51.218;6.786;2022-12-18T07:58:54;0.10;99.90
10583;DHT22;33679;51.218;6.786;2022-12-18T08:01:21;0.10;99.90
10583;DHT22;33679;51.218;6.786;2022-12-18T08:03:48;0.10;99.90
10583;DHT22;33679;51.218;6.786;2022-12-18T08:06:15;0.20;99.90
10583;DHT22;33679;51.218;6.786;2022-12-18T08:08:42;0.20;99.90
10583;DHT22;33679;51.218;6.786;2022-12-18T08:11:10;0.20;99.90
10583;DHT22;33679;51.218;6.786;2022-12-18T08:13:40;0.20;99.90
10583;DHT22;33679;51.218;6.786;2022-12-18T08:16:08;0.20;99.90
10583;DHT22;33679;51.218;6.786;2022-12-18T08:18:36;0.20;99.90
10583;DHT22;33679;51.218;6.786;2022-12-18T08:21:10;0.20;99.90
10583;DHT22;33679;51.218;6.786;2022-12-18T08:23:41;0.20;99.90
10583;DHT22;33679;51.218;6.786;2022-12-18T08:26:08;0.30;99.90
10583;DHT22;33679;51.218;6.786;2022-12-18T08:28:35;0.30;99.90
10583;DHT22;33679;51.218;6.786;2022-12-18T08:31:04;0.40;99.90
10583;DHT22;33679;51.218;6.786;2022-12-18T08:33:31;0.40;99.90
10583;DHT22;33679;51.218;6.786;2022-12-18T08:35:59;0.30;99.90
10583;DHT22;33679;51.218;6.786;2022-12-18T08:38:26;0.30;99.90
10583;DHT22;33679;51.218;6.786;2022-12-18T08:40:58;0.40;99.90
10583;DHT22;33679;51.218;6.786;2022-12-18T08:43:26;0.40;99.90
10583;DHT22;33679;51.218;6.786;2022-12-18T08:46:12;0.40;99.90
10583;DHT22;33679;51.218;6.786;2022-12-18T08:48:41;0.40;99.90
10583;DHT22;33679;51.218;6.786;2022-12-18T08:51:11;0.50;99.90
10583;DHT22;33679;51.218;6.786;2022-12-18T08:53:39;0.60;99.90
10583;DHT22;33679;51.218;6.786;2022-12-18T08:56:07;0.60;99.90
10583;DHT22;33679;51.218;6.786;2022-12-18T08:58:34;0.60;99.90
10583;DHT22;33679;51.218;6.786;2022-12-18T09:01:01;0.70;99.90
10583;DHT22;33679;51.218;6.786;2022-12-18T09:03:30;0.70;99.90
10583;DHT22;33679;51.218;6.786;2022-12-18T09:05:59;0.70;99.90
10583;DHT22;33679;51.218;6.786;2022-12-18T09:08:27;0.70;99.90
10583;DHT22;33679;51.218;6.786;2022-12-18T09:10:54;0.80;99.90
10583;DHT22;33679;51.218;6.786;2022-12-18T09:13:22;0.90;99.90
10583;DHT22;33679;51.218;6.786;2022-12-18T09:15:51;0.90;99.90
10583;DHT22;33679;51.218;6.786;2022-12-18T09:18:19;0.90;99.90
10583;DHT22;33679;51.218;6.786;2022-12-18T09:20:49;1.00;99.90
10583;DHT22;33679;51.218;6.786;2022-12-18T09:23:18;1.00;99.90
10583;DHT22;33679;51.218;6.786;2022-12-18T09:25:46;0.90;99.90
10583;DHT22;33679;51.218;6.786;2022-12-18T09:28:17;0.90;99.90
10583;DHT22;33679;51.218;6.786;2022-12-18T09:30:46;1.00;99.90
10583;DHT22;33679;51.218;6.786;2022-12-18T09:33:14;1.00;99.90
10583;DHT22;33679;51.218;6.786;2022-12-18T09:35:43;1.00;99.90
10583;DHT22;33679;51.218;6.786;2022-12-18T09:38:14;1.00;99.90
10583;DHT22;33679;51.218;6.786;2022-12-18T09:40:44;1.00;99.90
10583;DHT22;33679;51.218;6.786;2022-12-18T09:43:16;1.10;99.90
10583;DHT22;33679;51.218;6.786;2022-12-18T09:45:47;1.20;99.90
10583;DHT22;33679;51.218;6.786;2022-12-18T09:48:19;1.20;99.90
10583;DHT22;33679;51.218;6.786;2022-12-18T09:50:48;1.20;99.90
10583;DHT22;33679;51.218;6.786;2022-12-18T09:53:21;1.30;99.90
10583;DHT22;33679;51.218;6.786;2022-12-18T09:55:51;1.40;99.90
10583;DHT22;33679;51.218;6.786;2022-12-18T09:58:26;1.40;99.90
10583;DHT22;33679;51.218;6.786;2022-12-18T10:00:55;1.50;99.90
10583;DHT22;33679;51.218;6.786;2022-12-18T10:03:22;1.50;99.90
10583;DHT22;33679;51.218;6.786;2022-12-18T10:05:57;1.60;99.90
10583;DHT22;33679;51.218;6.786;2022-12-18T10:08:37;1.60;99.90
10583;DHT22;33679;51.218;6.786;2022-12-18T10:11:25;1.60;99.90
10583;DHT22;33679;51.218;6.786;2022-12-18T10:13:58;1.70;99.90
10583;DHT22;33679;51.218;6.786;2022-12-18T10:16:34;1.70;99.90
10583;DHT22;33679;51.218;6.786;2022-12-18T10:19:15;1.70;99.90
10583;DHT22;33679;51.218;6.786;2022-12-18T10:21:50;1.70;99.90
10583;DHT22;33679;51.218;6.786;2022-12-18T10:24:24;1.70;99.90
10583;DHT22;33679;51.218;6.786;2022-12-18T10:26:56;1.70;99.90
10583;DHT22;33679;51.218;6.786;2022-12-18T10:29:25;1.70;99.90
10583;DHT22;33679;51.218;6.786;2022-12-18T10:31:53;1.70;99.90
10583;DHT22;33679;51.218;6.786;2022-12-18T10:34:21;1.70;99.90
10583;DHT22;33679;51.218;6.786;2022-12-18T10:36:48;1.80;99.90
10583;DHT22;33679;51.218;6.786;2022-12-18T10:39:18;1.90;99.90
10583;DHT22;33679;51.218;6.786;2022-12-18T10:41:49;2.00;99.90
10583;DHT22;33679;51.218;6.786;2022-12-18T10:44:19;2.00;99.90
10583;DHT22;33679;51.218;6.786;2022-12-18T10:46:50;2.10;99.90
10583;DHT22;33679;51.218;6.786;2022-12-18T10:49:23;2.30;99.90
10583;DHT22;33679;51.218;6.786;2022-12-18T10:52:05;2.30;99.90
10583;DHT22;33679;51.218;6.786;2022-12-18T10:54:34;2.30;99.90
10583;DHT22;33679;51.218;6.786;2022-12-18T10:57:17;2.40;99.90
10583;DHT22;33679;51.218;6.786;2022-12-18T10:59:52;2.50;99.90
10583;DHT22;33679;51.218;6.786;2022-12-18T11:02:28;2.50;99.90
10583;DHT22;33679;51.218;6.786;2022-12-18T11:05:00;2.50;99.90
10583;DHT22;33679;51.218;6.786;2022-12-18T11:07:47;2.60;99.90
10583;DHT22;33679;51.218;6.786;2022-12-18T11:10:16;2.60;99.90
10583;DHT22;33679;51.218;6.786;2022-12-18T11:12:48;2.60;99.90
10583;DHT22;33679;51.218;6.786;2022-12-18T11:15:19;2.60;99.90
10583;DHT22;33679;51.218;6.786;2022-12-18T11:17:50;2.60;99.90
10583;DHT22;33679;51.218;6.786;2022-12-18T11:20:23;2.60;99.90
10583;DHT22;33679;51.218;6.786;2022-12-18T11:22:58;2.70;99.90
10583;DHT22;33679;51.218;6.786;2022-12-18T11:25:29;2.70;99.90
10583;DHT22;33679;51.218;6.786;2022-12-18T11:28:04;2.80;99.90
10583;DHT22;33679;51.218;6.786;2022-12-18T11:30:33;2.80;99.90
10583;DHT22;33679;51.218;6.786;2022-12-18T11:33:13;2.80;99.90
10583;DHT22;33679;51.218;6.786;2022-12-18T11:35:45;2.90;99.90
10583;DHT22;33679;51.218;6.786;2022-12-18T11:38:21;2.90;99.90
10583;DHT22;33679;51.218;6.786;2022-12-18T11:40:56;2.90;99.90
10583;DHT22;33679;51.218;6.786;2022-12-18T11:43:33;2.90;99.90
10583;DHT22;33679;51.218;6.786;2022-12-18T11:46:08;3.00;99.90
10583;DHT22;33679;51.218;6.786;2022-12-18T11:48:41;3.00;99.90
10583;DHT22;33679;51.218;6.786;2022-12-18T11:51:12;3.10;99.90
10583;DHT22;33679;51.218;6.786;2022-12-18T11:53:42;3.10;99.90
10583;DHT22;33679;51.218;6.786;2022-12-18T11:56:26;3.10;99.90
10583;DHT22;33679;51.218;6.786;2022-12-18T11:59:05;3.10;99.90
10583;DHT22;33679;51.218;6.786;2022-12-18T12:01:44;3.10;99.90
10583;DHT22;33679;51.218;6.786;2022-12-18T12:04:37;3.10;99.90
10583;DHT22;33679;51.218;6.786;2022-12-18T12:07:38;3.20;99.90
10583;DHT22;33679;51.218;6.786;2022-12-18T12:10:28;3.20;99.90
10583;DHT22;33679;51.218;6.786;2022-12-18T12:13:17;3.20;99.90
10583;DHT22;33679;51.218;6.786;2022-12-18T12:15:55;3.20;99.90
10583;DHT22;33679;51.218;6.786;2022-12-18T12:18:29;3.20;99.90
10583;DHT22;33679;51.218;6.786;2022-12-18T12:21:04;3.30;99.90
10583;DHT22;33679;51.218;6.786;2022-12-18T12:23:41;3.20;99.90
10583;DHT22;33679;51.218;6.786;2022-12-18T12:26:15;3.20;99.90
10583;DHT22;33679;51.218;6.786;2022-12-18T12:29:05;3.20;99.90
10583;DHT22;33679;51.218;6.786;2022-12-18T12:31:54;3.20;99.90
10583;DHT22;33679;51.218;6.786;2022-12-18T12:34:26;3.10;99.90
10583;DHT22;33679;51.218;6.786;2022-12-18T12:37:04;3.10;99.90
10583;DHT22;33679;51.218;6.786;2022-12-18T12:39:38;3.20;99.90
10583;DHT22;33679;51.218;6.786;2022-12-18T12:42:31;3.10;99.90
10583;DHT22;33679;51.218;6.786;2022-12-18T12:45:22;3.00;99.90
10583;DHT22;33679;51.218;6.786;2022-12-18T12:47:55;3.00;99.90
10583;DHT22;33679;51.218;6.786;2022-12-18T12:50:24;3.00;99.90
10583;DHT22;33679;51.218;6.786;2022-12-18T12:52:54;2.90;99.90
10583;DHT22;33679;51.218;6.786;2022-12-18T12:55:24;3.00;99.90
10583;DHT22;33679;51.218;6.786;2022-12-18T12:57:58;3.00;99.90
10583;DHT22;33679;51.218;6.786;2022-12-18T13:00:34;3.00;99.90
10583;DHT22;33679;51.218;6.786;2022-12-18T13:03:12;2.90;99.90
10583;DHT22;33679;51.218;6.786;2022-12-18T13:05:48;2.90;99.90
10583;DHT22;33679;51.218;6.786;2022-12-18T13:08:23;2.90;99.90
10583;DHT22;33679;51.218;6.786;2022-12-18T13:10:52;2.70;99.90
10583;DHT22;33679;51.218;6.786;2022-12-18T13:13:49;2.60;99.90
10583;DHT22;33679;51.218;6.786;2022-12-18T13:16:19;2.60;99.90
10583;DHT22;33679;51.218;6.786;2022-12-18T13:18:53;2.70;99.90
10583;DHT22;33679;51.218;6.786;2022-12-18T13:21:25;2.70;99.90
10583;DHT22;33679;51.218;6.786;2022-12-18T13:23:54;2.70;99.90
10583;DHT22;33679;51.218;6.786;2022-12-18T13:26:31;2.70;99.90
10583;DHT22;33679;51.218;6.786;2022-12-18T13:29:00;2.70;99.90
10583;DHT22;33679;51.218;6.786;2022-12-18T13:34:35;2.60;99.90
10583;DHT22;33679;51.218;6.786;2022-12-18T13:37:40;2.70;99.90
10583;DHT22;33679;51.218;6.786;2022-12-18T13:43:28;2.70;99.90
10583;DHT22;33679;51.218;6.786;2022-12-18T13:46:06;2.70;99.90
10583;DHT22;33679;51.218;6.786;2022-12-18T13:48:56;2.70;99.90
10583;DHT22;33679;51.218;6.786;2022-12-18T13:51:29;2.80;99.90
10583;DHT22;33679;51.218;6.786;2022-12-18T13:53:59;2.80;99.90
10583;DHT22;33679;51.218;6.786;2022-12-18T13:56:31;2.80;99.90
10583;DHT22;33679;51.218;6.786;2022-12-18T13:59:14;2.80;99.90
10583;DHT22;33679;51.218;6.786;2022-12-18T14:01:46;2.80;99.90
10583;DHT22;33679;51.218;6.786;2022-12-18T14:04:23;2.90;99.90
10583;DHT22;33679;51.218;6.786;2022-12-18T14:06:56;2.90;99.90
10583;DHT22;33679;51.218;6.786;2022-12-18T14:09:26;2.90;99.90
10583;DHT22;33679;51.218;6.786;2022-12-18T14:11:57;3.00;99.90
10583;DHT22;33679;51.218;6.786;2022-12-18T14:14:41;2.90;99.90
10583;DHT22;33679;51.218;6.786;2022-12-18T14:17:11;2.80;99.90
10583;DHT22;33679;51.218;6.786;2022-12-18T14:19:45;2.80;99.90
10583;DHT22;33679;51.218;6.786;2022-12-18T14:22:19;2.70;99.90
10583;DHT22;33679;51.218;6.786;2022-12-18T14:25:04;2.70;99.90
10583;DHT22;33679;51.218;6.786;2022-12-18T14:27:38;2.70;99.90
10583;DHT22;33679;51.218;6.786;2022-12-18T14:30:24;2.70;99.90
10583;DHT22;33679;51.218;6.786;2022-12-18T14:33:01;2.70;99.90
10583;DHT22;33679;51.218;6.786;2022-12-18T14:35:28;2.70;99.90
10583;DHT22;33679;51.218;6.786;2022-12-18T14:38:14;2.60;99.90
10583;DHT22;33679;51.218;6.786;2022-12-18T14:40:46;2.60;99.90
10583;DHT22;33679;51.218;6.786;2022-12-18T14:43:13;2.60;99.90
10583;DHT22;33679;51.218;6.786;2022-12-18T14:45:41;2.60;99.90
10583;DHT22;33679;51.218;6.786;2022-12-18T14:48:15;2.60;99.90
10583;DHT22;33679;51.218;6.786;2022-12-18T14:50:43;2.60;99.90
10583;DHT22;33679;51.218;6.786;2022-12-18T14:53:22;2.60;99.90
10583;DHT22;33679;51.218;6.786;2022-12-18T14:55:50;2.60;99.90
10583;DHT22;33679;51.218;6.786;2022-12-18T14:58:18;2.60;99.90
10583;DHT22;33679;51.218;6.786;2022-12-18T15:00:45;2.70;99.90
10583;DHT22;33679;51.218;6.786;2022-12-18T15:03:18;2.60;99.90
10583;DHT22;33679;51.218;6.786;2022-12-18T15:05:45;2.60;99.90
10583;DHT22;33679;51.218;6.786;2022-12-18T15:08:36;2.60;99.90
10583;DHT22;33679;51.218;6.786;2022-12-18T15:11:28;2.60;99.90
10583;DHT22;33679;51.218;6.786;2022-12-18T15:13:57;2.60;99.90
10583;DHT22;33679;51.218;6.786;2022-12-18T15:16:24;2.50;99.90
10583;DHT22;33679;51.218;6.786;2022-12-18T15:18:52;2.40;99.90
10583;DHT22;33679;51.218;6.786;2022-12-18T15:21:20;2.40;99.90
10583;DHT22;33679;51.218;6.786;2022-12-18T15:23:50;2.40;99.90
10583;DHT22;33679;51.218;6.786;2022-12-18T15:26:19;2.40;99.90
10583;DHT22;33679;51.218;6.786;2022-12-18T15:28:48;2.40;99.90
10583;DHT22;33679;51.218;6.786;2022-12-18T15:31:29;2.40;99.90
10583;DHT22;33679;51.218;6.786;2022-12-18T15:34:12;2.50;99.90
10583;DHT22;33679;51.218;6.786;2022-12-18T15:36:40;2.50;99.90
10583;DHT22;33679;51.218;6.786;2022-12-18T15:39:12;2.50;99.90
10583;DHT22;33679;51.218;6.786;2022-12-18T15:41:39;2.40;99.90
10583;DHT22;33679;51.218;6.786;2022-12-18T15:44:27;2.40;99.90
10583;DHT22;33679;51.218;6.786;2022-12-18T15:46:56;2.40;99.90
10583;DHT22;33679;51.218;6.786;2022-12-18T15:49:24;2.50;99.90
10583;DHT22;33679;51.218;6.786;2022-12-18T15:51:53;2.40;99.90
10583;DHT22;33679;51.218;6.786;2022-12-18T15:54:25;2.40;99.90
10583;DHT22;33679;51.218;6.786;2022-12-18T15:57:19;2.40;99.90
10583;DHT22;33679;51.218;6.786;2022-12-18T15:59:53;2.40;99.90
10583;DHT22;33679;51.218;6.786;2022-12-18T16:02:22;2.40;99.90
10583;DHT22;33679;51.218;6.786;2022-12-18T16:04:50;2.50;99.90
10583;DHT22;33679;51.218;6.786;2022-12-18T16:07:21;2.40;99.90
10583;DHT22;33679;51.218;6.786;2022-12-18T16:09:50;2.40;99.90
10583;DHT22;33679;51.218;6.786;2022-12-18T16:12:19;2.30;99.90
10583;DHT22;33679;51.218;6.786;2022-12-18T16:14:48;2.30;99.90
10583;DHT22;33679;51.218;6.786;2022-12-18T16:17:15;2.30;99.90
10583;DHT22;33679;51.218;6.786;2022-12-18T16:19:43;2.30;99.90